Time,TemperatureF,DewpointF,PressureIn,WindDirection,WindDirectionDegrees,WindSpeedMPH,WindSpeedGustMPH,Humidity,HourlyPrecipIn,Conditions,Clouds,dailyrainin,SoftwareType,DateUTC
2013-01-17 00:00:00,34.2,31.9,30.43,ESE,108,0.0,4.0,91,0.00,,---,0.00,VWS V14.00,2013-01-17 08:00:00,
2013-01-17 00:03:00,34.3,32.0,30.42,ESE,108,0.0,0.0,91,0.00,,---,0.00,VWS V14.00,2013-01-17 08:03:00,
2013-01-17 00:08:00,34.4,32.3,30.42,WNW,298,0.0,0.0,92,0.00,,---,0.00,VWS V14.00,2013-01-17 08:08:00,
2013-01-17 00:13:00,34.5,32.4,30.42,WNW,292,0.0,2.0,92,0.00,,---,0.00,VWS V14.00,2013-01-17 08:13:00,
2013-01-17 00:17:00,34.5,32.2,30.42,NW,323,0.0,2.0,91,0.00,,---,0.00,VWS V14.00,2013-01-17 08:17:00,
2013-01-17 00:22:00,34.4,32.0,30.42,WNW,300,0.0,2.0,91,0.00,,---,0.00,VWS V14.00,2013-01-17 08:22:00,
2013-01-17 00:27:00,34.3,32.0,30.42,NNE,24,0.0,2.0,91,0.00,,---,0.00,VWS V14.00,2013-01-17 08:27:00,
2013-01-17 00:30:00,34.3,32.0,30.42,North,8,0.0,2.0,91,0.00,,---,0.00,VWS V14.00,2013-01-17 08:30:00,
2013-01-17 00:32:00,34.2,31.9,30.42,North,8,0.0,0.0,91,0.00,,---,0.00,VWS V14.00,2013-01-17 08:32:00,
2013-01-17 00:37:00,33.9,31.6,30.43,NNE,20,0.0,0.0,91,0.00,,---,0.00,VWS V14.00,2013-01-17 08:37:00,
2013-01-17 00:42:00,33.9,31.8,30.43,NW,304,0.0,3.0,92,0.00,,---,0.00,VWS V14.00,2013-01-17 08:42:00,
2013-01-17 00:47:00,34.2,32.1,30.43,WNW,294,1.0,3.0,92,0.00,,---,0.00,VWS V14.00,2013-01-17 08:47:00,
2013-01-17 00:52:00,34.4,32.3,30.43,WNW,299,0.0,3.0,92,0.00,,---,0.00,VWS V14.00,2013-01-17 08:52:00,
2013-01-17 00:57:00,34.4,32.3,30.43,NNE,30,0.0,3.0,92,0.00,,---,0.00,VWS V14.00,2013-01-17 08:57:00,
2013-01-17 01:00:00,34.4,32.3,30.43,NNE,30,0.0,3.0,92,0.00,,---,0.00,VWS V14.00,2013-01-17 09:00:00,
2013-01-17 01:02:00,34.4,32.3,30.43,NNE,30,0.0,1.0,92,0.00,,---,0.00,VWS V14.00,2013-01-17 09:02:00,
2013-01-17 01:07:00,34.4,32.3,30.43,WNW,295,0.0,1.0,92,0.00,,---,0.00,VWS V14.00,2013-01-17 09:07:00,
2013-01-17 01:12:00,34.3,32.2,30.43,WNW,294,0.0,1.0,92,0.00,,---,0.00,VWS V14.00,2013-01-17 09:12:00,
2013-01-17 01:17:00,34.1,32.0,30.43,WNW,294,0.0,1.0,92,0.00,,---,0.00,VWS V14.00,2013-01-17 09:17:00,
2013-01-17 01:22:00,34.0,31.9,30.43,WNW,301,0.0,2.0,92,0.00,,---,0.00,VWS V14.00,2013-01-17 09:22:00,
2013-01-17 01:27:00,33.9,31.8,30.42,WNW,298,0.0,2.0,92,0.00,,---,0.00,VWS V14.00,2013-01-17 09:27:00,
2013-01-17 01:30:00,33.9,31.8,30.42,WNW,297,0.0,2.0,92,0.00,,---,0.00,VWS V14.00,2013-01-17 09:30:00,
2013-01-17 01:32:00,33.9,32.1,30.42,WNW,288,0.0,0.0,93,0.00,,---,0.00,VWS V14.00,2013-01-17 09:32:00,
2013-01-17 01:37:00,33.9,32.1,30.42,NNW,336,0.0,0.0,93,0.00,,---,0.00,VWS V14.00,2013-01-17 09:37:00,
2013-01-17 01:42:00,33.8,31.7,30.42,NW,311,0.0,0.0,92,0.00,,---,0.00,VWS V14.00,2013-01-17 09:42:00,
2013-01-17 01:47:00,33.8,32.0,30.42,NW,309,0.0,0.0,93,0.00,,---,0.00,VWS V14.00,2013-01-17 09:47:00,
2013-01-17 01:52:00,33.5,31.4,30.42,NW,309,0.0,0.0,92,0.00,,---,0.00,VWS V14.00,2013-01-17 09:52:00,
2013-01-17 01:57:00,33.6,31.8,30.42,NW,304,0.0,0.0,93,0.00,,---,0.00,VWS V14.00,2013-01-17 09:57:00,
2013-01-17 02:00:00,33.7,31.9,30.41,WNW,294,1.0,2.0,93,0.00,,---,0.00,VWS V14.00,2013-01-17 10:00:00,
2013-01-17 02:02:00,33.7,31.9,30.42,WNW,300,0.0,2.0,93,0.00,,---,0.00,VWS V14.00,2013-01-17 10:02:00,
2013-01-17 02:07:00,33.8,32.0,30.41,WNW,303,2.0,2.0,93,0.00,,---,0.00,VWS V14.00,2013-01-17 10:07:00,
2013-01-17 02:12:00,33.8,32.0,30.41,WNW,301,0.0,2.0,93,0.00,,---,0.00,VWS V14.00,2013-01-17 10:12:00,
2013-01-17 02:17:00,33.6,31.5,30.41,WNW,300,0.0,2.0,92,0.00,,---,0.00,VWS V14.00,2013-01-17 10:17:00,
2013-01-17 02:22:00,33.1,31.0,30.41,WNW,301,0.0,2.0,92,0.00,,---,0.00,VWS V14.00,2013-01-17 10:22:00,
2013-01-17 02:27:00,32.7,30.9,30.41,WNW,299,0.0,2.0,93,0.00,,---,0.00,VWS V14.00,2013-01-17 10:27:00,
2013-01-17 02:30:00,32.6,30.8,30.41,WNW,299,0.0,2.0,93,0.00,,---,0.00,VWS V14.00,2013-01-17 10:30:00,
2013-01-17 02:32:00,32.8,31.3,30.41,West,271,0.0,0.0,94,0.00,,---,0.00,VWS V14.00,2013-01-17 10:32:00,
2013-01-17 02:37:00,32.8,31.3,30.40,West,271,0.0,0.0,94,0.00,,---,0.00,VWS V14.00,2013-01-17 10:37:00,
2013-01-17 02:42:00,32.7,31.2,30.40,West,273,0.0,0.0,94,0.00,,---,0.00,VWS V14.00,2013-01-17 10:42:00,
2013-01-17 02:47:00,32.7,31.2,30.40,West,273,0.0,0.0,94,0.00,,---,0.00,VWS V14.00,2013-01-17 10:47:00,
2013-01-17 02:52:00,32.9,31.4,30.40,NW,323,0.0,0.0,94,0.00,,---,0.00,VWS V14.00,2013-01-17 10:52:00,
2013-01-17 02:57:00,32.9,31.4,30.40,NNE,12,0.0,0.0,94,0.00,,---,0.00,VWS V14.00,2013-01-17 10:57:00,
2013-01-17 03:00:00,32.7,31.2,30.40,NNE,12,0.0,0.0,94,0.00,,---,0.00,VWS V14.00,2013-01-17 11:00:00,
2013-01-17 03:02:00,32.5,31.0,30.40,North,9,0.0,0.0,94,0.00,,---,0.00,VWS V14.00,2013-01-17 11:02:00,
2013-01-17 03:07:00,32.5,31.0,30.39,North,9,0.0,0.0,94,0.00,,---,0.00,VWS V14.00,2013-01-17 11:07:00,
2013-01-17 03:12:00,32.4,30.9,30.40,North,9,0.0,0.0,94,0.00,,---,0.00,VWS V14.00,2013-01-17 11:12:00,
2013-01-17 03:17:00,32.6,31.3,30.40,North,9,0.0,0.0,95,0.00,,---,0.00,VWS V14.00,2013-01-17 11:17:00,
2013-01-17 03:22:00,32.5,31.0,30.39,North,9,0.0,0.0,94,0.00,,---,0.00,VWS V14.00,2013-01-17 11:22:00,
2013-01-17 03:27:00,32.5,31.2,30.39,WNW,298,0.0,0.0,95,0.00,,---,0.00,VWS V14.00,2013-01-17 11:27:00,
2013-01-17 03:30:00,32.7,31.4,30.39,WNW,297,0.0,3.0,95,0.00,,---,0.00,VWS V14.00,2013-01-17 11:30:00,
2013-01-17 03:32:00,32.8,31.5,30.39,NW,322,0.0,0.0,95,0.00,,---,0.00,VWS V14.00,2013-01-17 11:32:00,
2013-01-17 03:37:00,32.7,31.2,30.39,WNW,294,0.0,0.0,94,0.00,,---,0.00,VWS V14.00,2013-01-17 11:37:00,
2013-01-17 03:42:00,32.9,31.6,30.39,North,5,0.0,0.0,95,0.00,,---,0.00,VWS V14.00,2013-01-17 11:42:00,
2013-01-17 03:47:00,33.0,31.7,30.39,North,354,0.0,0.0,95,0.00,,---,0.00,VWS V14.00,2013-01-17 11:47:00,
2013-01-17 03:52:00,32.7,31.2,30.39,North,354,0.0,0.0,94,0.00,,---,0.00,VWS V14.00,2013-01-17 11:52:00,
2013-01-17 03:57:00,32.7,31.2,30.39,SSW,207,0.0,0.0,94,0.00,,---,0.00,VWS V14.00,2013-01-17 11:57:00,
2013-01-17 04:00:00,32.8,31.5,30.38,West,278,0.0,2.0,95,0.00,,---,0.00,VWS V14.00,2013-01-17 12:00:00,
2013-01-17 04:02:00,33.1,31.8,30.38,WSW,248,0.0,2.0,95,0.00,,---,0.00,VWS V14.00,2013-01-17 12:02:00,
2013-01-17 04:07:00,33.1,31.6,30.38,WSW,248,0.0,2.0,94,0.00,,---,0.00,VWS V14.00,2013-01-17 12:07:00,
2013-01-17 04:12:00,32.8,31.3,30.38,WSW,248,0.0,2.0,94,0.00,,---,0.00,VWS V14.00,2013-01-17 12:12:00,
2013-01-17 04:17:00,32.5,31.0,30.38,WSW,248,0.0,2.0,94,0.00,,---,0.00,VWS V14.00,2013-01-17 12:17:00,
2013-01-17 04:22:00,32.3,30.8,30.38,WSW,248,0.0,2.0,94,0.00,,---,0.00,VWS V14.00,2013-01-17 12:22:00,
2013-01-17 04:27:00,32.2,30.7,30.38,WSW,248,0.0,2.0,94,0.00,,---,0.00,VWS V14.00,2013-01-17 12:27:00,
2013-01-17 04:30:00,32.1,30.8,30.38,WSW,248,0.0,2.0,95,0.00,,---,0.00,VWS V14.00,2013-01-17 12:30:00,
2013-01-17 04:32:00,32.3,31.0,30.38,WNW,302,2.0,2.0,95,0.00,,---,0.00,VWS V14.00,2013-01-17 12:32:00,
2013-01-17 04:37:00,32.5,31.2,30.38,WNW,297,0.0,2.0,95,0.00,,---,0.00,VWS V14.00,2013-01-17 12:37:00,
2013-01-17 04:42:00,32.7,31.4,30.38,SE,138,0.0,2.0,95,0.00,,---,0.00,VWS V14.00,2013-01-17 12:42:00,
2013-01-17 04:47:00,32.9,31.6,30.37,WSW,237,0.0,2.0,95,0.00,,---,0.00,VWS V14.00,2013-01-17 12:47:00,
2013-01-17 04:53:00,32.9,31.6,30.37,West,267,1.0,2.0,95,0.00,,---,0.00,VWS V14.00,2013-01-17 12:53:00,
2013-01-17 04:57:00,32.8,31.3,30.37,West,267,0.0,2.0,94,0.00,,---,0.00,VWS V14.00,2013-01-17 12:57:00,
2013-01-17 05:00:00,32.6,31.1,30.37,West,267,0.0,2.0,94,0.00,,---,0.00,VWS V14.00,2013-01-17 13:00:00,
2013-01-17 05:02:00,32.3,30.8,30.37,West,267,0.0,0.0,94,0.00,,---,0.00,VWS V14.00,2013-01-17 13:02:00,
2013-01-17 05:07:00,32.2,30.7,30.36,West,267,0.0,0.0,94,0.00,,---,0.00,VWS V14.00,2013-01-17 13:07:00,
2013-01-17 05:12:00,32.0,30.5,30.36,West,267,0.0,1.0,94,0.00,,---,0.00,VWS V14.00,2013-01-17 13:12:00,
2013-01-17 05:17:00,32.1,30.8,30.36,West,276,1.0,1.0,95,0.00,,---,0.00,VWS V14.00,2013-01-17 13:17:00,
2013-01-17 05:22:00,32.3,31.0,30.36,West,277,1.0,2.0,95,0.00,,---,0.00,VWS V14.00,2013-01-17 13:22:00,
2013-01-17 05:27:00,32.3,31.0,30.36,West,276,1.0,2.0,95,0.00,,---,0.00,VWS V14.00,2013-01-17 13:27:00,
2013-01-17 05:30:00,32.2,30.9,30.36,West,277,0.0,2.0,95,0.00,,---,0.00,VWS V14.00,2013-01-17 13:30:00,
2013-01-17 05:32:00,32.1,30.8,30.36,West,276,0.0,0.0,95,0.00,,---,0.00,VWS V14.00,2013-01-17 13:32:00,
2013-01-17 05:37:00,32.1,30.8,30.36,West,277,0.0,0.0,95,0.00,,---,0.00,VWS V14.00,2013-01-17 13:37:00,
2013-01-17 05:42:00,32.2,30.9,30.36,West,277,0.0,1.0,95,0.00,,---,0.00,VWS V14.00,2013-01-17 13:42:00,
2013-01-17 05:47:00,32.2,30.9,30.36,West,277,0.0,1.0,95,0.00,,---,0.00,VWS V14.00,2013-01-17 13:47:00,
2013-01-17 05:52:00,32.4,31.4,30.36,West,277,0.0,1.0,96,0.00,,---,0.00,VWS V14.00,2013-01-17 13:52:00,
2013-01-17 05:57:00,32.6,31.6,30.36,SSW,208,0.0,1.0,96,0.00,,---,0.00,VWS V14.00,2013-01-17 13:57:00,
2013-01-17 06:00:00,32.6,31.6,30.36,SSW,208,0.0,1.0,96,0.00,,---,0.00,VWS V14.00,2013-01-17 14:00:00,
2013-01-17 06:02:00,32.7,31.7,30.35,SSW,208,0.0,0.0,96,0.00,,---,0.00,VWS V14.00,2013-01-17 14:02:00,
2013-01-17 06:07:00,32.6,31.6,30.35,West,276,1.0,1.0,96,0.00,,---,0.00,VWS V14.00,2013-01-17 14:07:00,
2013-01-17 06:12:00,32.6,31.6,30.35,West,263,0.0,1.0,96,0.00,,---,0.00,VWS V14.00,2013-01-17 14:12:00,
2013-01-17 06:17:00,32.4,31.1,30.35,West,263,0.0,1.0,95,0.00,,---,0.00,VWS V14.00,2013-01-17 14:17:00,
2013-01-17 06:22:00,32.3,31.0,30.35,NNE,22,0.0,1.0,95,0.00,,---,0.00,VWS V14.00,2013-01-17 14:22:00,
2013-01-17 06:27:00,32.3,31.0,30.35,NNE,22,0.0,1.0,95,0.00,,---,0.00,VWS V14.00,2013-01-17 14:27:00,
2013-01-17 06:30:00,32.2,30.9,30.35,NNE,22,0.0,1.0,95,0.00,,---,0.00,VWS V14.00,2013-01-17 14:30:00,
2013-01-17 06:32:00,32.1,30.8,30.35,NNE,22,0.0,0.0,95,0.00,,---,0.00,VWS V14.00,2013-01-17 14:32:00,
2013-01-17 06:37:00,32.3,31.3,30.35,ENE,63,2.0,2.0,96,0.00,,---,0.00,VWS V14.00,2013-01-17 14:37:00,
2013-01-17 06:42:00,32.5,31.5,30.35,ENE,68,0.0,2.0,96,0.00,,---,0.00,VWS V14.00,2013-01-17 14:42:00,
2013-01-17 06:47:00,32.4,31.1,30.35,ENE,68,0.0,2.0,95,0.00,,---,0.00,VWS V14.00,2013-01-17 14:47:00,
2013-01-17 06:52:00,32.2,31.2,30.35,NE,34,0.0,2.0,96,0.00,,---,0.00,VWS V14.00,2013-01-17 14:52:00,
2013-01-17 06:57:00,32.1,31.1,30.35,NE,34,0.0,2.0,96,0.00,,---,0.00,VWS V14.00,2013-01-17 14:57:00,
2013-01-17 07:00:00,32.1,31.1,30.35,NE,34,0.0,2.0,96,0.00,,---,0.00,VWS V14.00,2013-01-17 15:00:00,
2013-01-17 07:02:00,32.1,31.1,30.35,NE,41,0.0,0.0,96,0.00,,---,0.00,VWS V14.00,2013-01-17 15:02:00,
2013-01-17 07:07:00,32.2,31.2,30.34,NE,43,0.0,0.0,96,0.00,,---,0.00,VWS V14.00,2013-01-17 15:07:00,
2013-01-17 07:12:00,32.0,30.7,30.34,NE,49,0.0,2.0,95,0.00,,---,0.00,VWS V14.00,2013-01-17 15:12:00,
2013-01-17 07:17:00,31.9,30.9,30.34,ENE,58,0.0,2.0,96,0.00,,---,0.00,VWS V14.00,2013-01-17 15:17:00,
2013-01-17 07:22:00,32.0,31.0,30.34,NNE,23,1.0,2.0,96,0.00,,---,0.00,VWS V14.00,2013-01-17 15:22:00,
2013-01-17 07:27:00,32.0,31.0,30.34,NE,44,0.0,2.0,96,0.00,,---,0.00,VWS V14.00,2013-01-17 15:27:00,
2013-01-17 07:30:00,32.1,31.1,30.34,NNE,23,1.0,2.0,96,0.00,,---,0.00,VWS V14.00,2013-01-17 15:30:00,
2013-01-17 07:32:00,32.0,31.0,30.34,NE,41,0.0,1.0,96,0.00,,---,0.00,VWS V14.00,2013-01-17 15:32:00,
2013-01-17 07:37:00,32.2,31.2,30.34,NNW,330,1.0,2.0,96,0.00,,---,0.00,VWS V14.00,2013-01-17 15:37:00,
2013-01-17 07:42:00,32.3,31.3,30.34,NW,316,0.0,2.0,96,0.00,,---,0.00,VWS V14.00,2013-01-17 15:42:00,
2013-01-17 07:47:00,32.0,31.0,30.34,NW,316,0.0,2.0,96,0.00,,---,0.00,VWS V14.00,2013-01-17 15:47:00,
2013-01-17 07:52:00,31.6,30.3,30.35,NW,316,0.0,2.0,95,0.00,,---,0.00,VWS V14.00,2013-01-17 15:52:00,
2013-01-17 07:57:00,31.5,30.5,30.35,NW,316,0.0,2.0,96,0.00,,---,0.00,VWS V14.00,2013-01-17 15:57:00,
2013-01-17 08:00:00,32.3,31.5,30.36,NW,309,0.0,0.0,97,0.00,,---,0.00,VWS V14.00,2013-01-17 16:00:00,
2013-01-17 08:02:00,31.4,30.4,30.35,NW,316,0.0,0.0,96,0.00,,---,0.00,VWS V14.00,2013-01-17 16:02:00,
2013-01-17 08:07:00,31.6,30.6,30.35,NNW,331,0.0,0.0,96,0.00,,---,0.00,VWS V14.00,2013-01-17 16:07:00,
2013-01-17 08:12:00,31.6,30.6,30.35,NNW,336,0.0,0.0,96,0.00,,---,0.00,VWS V14.00,2013-01-17 16:12:00,
2013-01-17 08:17:00,31.7,30.7,30.35,NNW,338,0.0,0.0,96,0.00,,---,0.00,VWS V14.00,2013-01-17 16:17:00,
2013-01-17 08:22:00,31.6,30.6,30.35,NNW,335,0.0,0.0,96,0.00,,---,0.00,VWS V14.00,2013-01-17 16:22:00,
2013-01-17 08:27:00,31.7,30.7,30.35,North,4,0.0,0.0,96,0.00,,---,0.00,VWS V14.00,2013-01-17 16:27:00,
2013-01-17 08:30:00,31.9,30.9,30.35,North,4,0.0,0.0,96,0.00,,---,0.00,VWS V14.00,2013-01-17 16:30:00,
2013-01-17 08:32:00,32.0,31.0,30.35,North,4,0.0,0.0,96,0.00,,---,0.00,VWS V14.00,2013-01-17 16:32:00,
2013-01-17 08:37:00,32.1,31.1,30.35,NE,36,0.0,0.0,96,0.00,,---,0.00,VWS V14.00,2013-01-17 16:37:00,
2013-01-17 08:42:00,32.2,31.2,30.35,North,4,0.0,0.0,96,0.00,,---,0.00,VWS V14.00,2013-01-17 16:42:00,
2013-01-17 08:47:00,32.1,31.1,30.35,NW,307,0.0,0.0,96,0.00,,---,0.00,VWS V14.00,2013-01-17 16:47:00,
2013-01-17 08:52:00,32.0,31.0,30.36,NW,309,0.0,0.0,96,0.00,,---,0.00,VWS V14.00,2013-01-17 16:52:00,
2013-01-17 08:57:00,32.2,31.2,30.36,NW,309,0.0,0.0,96,0.00,,---,0.00,VWS V14.00,2013-01-17 16:57:00,
2013-01-17 09:00:00,32.3,31.5,30.36,NW,309,0.0,0.0,97,0.00,,---,0.00,VWS V14.00,2013-01-17 17:00:00,
2013-01-17 09:02:00,32.4,31.6,30.36,NNE,32,0.0,0.0,97,0.00,,---,0.00,VWS V14.00,2013-01-17 17:02:00,
2013-01-17 09:07:00,32.7,31.9,30.36,NNE,32,0.0,0.0,97,0.00,,---,0.00,VWS V14.00,2013-01-17 17:07:00,
2013-01-17 09:12:00,33.1,32.3,30.36,North,9,0.0,2.0,97,0.00,,---,0.00,VWS V14.00,2013-01-17 17:12:00,
2013-01-17 09:17:00,33.3,32.5,30.36,NE,37,0.0,2.0,97,0.00,,---,0.00,VWS V14.00,2013-01-17 17:17:00,
2013-01-17 09:22:00,33.6,32.8,30.36,NE,37,0.0,2.0,97,0.00,,---,0.00,VWS V14.00,2013-01-17 17:22:00,
2013-01-17 09:27:00,33.9,33.1,30.36,NE,37,0.0,2.0,97,0.00,,---,0.00,VWS V14.00,2013-01-17 17:27:00,
2013-01-17 09:30:00,34.2,33.4,30.36,SE,130,1.0,2.0,97,0.00,,---,0.00,VWS V14.00,2013-01-17 17:30:00,
2013-01-17 09:32:00,34.4,33.6,30.36,ESE,107,1.0,1.0,97,0.00,,---,0.00,VWS V14.00,2013-01-17 17:32:00,
2013-01-17 09:37:00,34.6,33.8,30.36,East,89,0.0,1.0,97,0.00,,---,0.00,VWS V14.00,2013-01-17 17:37:00,
2013-01-17 09:42:00,34.8,34.0,30.36,East,90,0.0,1.0,97,0.00,,---,0.00,VWS V14.00,2013-01-17 17:42:00,
2013-01-17 09:47:00,34.8,34.0,30.36,SE,133,0.0,1.0,97,0.00,,---,0.00,VWS V14.00,2013-01-17 17:47:00,
2013-01-17 09:52:00,35.0,34.2,30.36,SE,133,0.0,1.0,97,0.00,,---,0.00,VWS V14.00,2013-01-17 17:52:00,
2013-01-17 09:57:00,35.0,34.0,30.36,SE,124,1.0,1.0,96,0.00,,---,0.00,VWS V14.00,2013-01-17 17:57:00,
2013-01-17 10:00:00,35.0,34.0,30.36,SSE,149,0.0,1.0,96,0.00,,---,0.00,VWS V14.00,2013-01-17 18:00:00,
2013-01-17 10:02:00,35.1,34.1,30.35,ENE,65,2.0,2.0,96,0.00,,---,0.00,VWS V14.00,2013-01-17 18:02:00,
2013-01-17 10:07:00,35.1,34.1,30.35,ENE,75,0.0,2.0,96,0.00,,---,0.00,VWS V14.00,2013-01-17 18:07:00,
2013-01-17 10:12:00,35.2,34.2,30.35,East,87,1.0,2.0,96,0.00,,---,0.00,VWS V14.00,2013-01-17 18:12:00,
2013-01-17 10:17:00,35.3,34.3,30.35,NNE,28,0.0,2.0,96,0.00,,---,0.00,VWS V14.00,2013-01-17 18:17:00,
2013-01-17 10:22:00,35.5,34.5,30.35,ENE,74,1.0,2.0,96,0.00,,---,0.00,VWS V14.00,2013-01-17 18:22:00,
2013-01-17 10:27:00,35.7,34.4,30.35,ENE,61,2.0,2.0,95,0.00,,---,0.00,VWS V14.00,2013-01-17 18:27:00,
2013-01-17 10:30:00,35.6,34.0,30.35,NE,51,1.0,2.0,94,0.00,,---,0.00,VWS V14.00,2013-01-17 18:30:00,
2013-01-17 10:32:00,35.5,34.0,30.34,NE,47,0.0,2.0,94,0.00,,---,0.00,VWS V14.00,2013-01-17 18:32:00,
2013-01-17 10:37:00,35.4,33.8,30.34,NE,40,1.0,2.0,94,0.00,,---,0.00,VWS V14.00,2013-01-17 18:37:00,
2013-01-17 10:42:00,35.5,34.0,30.34,ENE,71,1.0,2.0,94,0.00,,---,0.00,VWS V14.00,2013-01-17 18:42:00,
2013-01-17 10:47:00,36.0,34.7,30.34,ESE,103,0.0,2.0,95,0.00,,---,0.00,VWS V14.00,2013-01-17 18:47:00,
2013-01-17 10:52:00,36.4,34.8,30.34,East,100,0.0,2.0,94,0.00,,---,0.00,VWS V14.00,2013-01-17 18:52:00,
2013-01-17 10:57:00,36.8,35.2,30.35,SE,140,0.0,2.0,94,0.00,,---,0.00,VWS V14.00,2013-01-17 18:57:00,
2013-01-17 11:00:00,37.0,35.2,30.35,ESE,107,0.0,3.0,93,0.00,,---,0.00,VWS V14.00,2013-01-17 19:00:00,
2013-01-17 11:02:00,36.9,35.1,30.35,ENE,61,2.0,2.0,93,0.00,,---,0.00,VWS V14.00,2013-01-17 19:02:00,
2013-01-17 11:07:00,36.9,34.8,30.34,East,89,0.0,2.0,92,0.00,,---,0.00,VWS V14.00,2013-01-17 19:07:00,
2013-01-17 11:12:00,36.7,34.3,30.34,East,87,0.0,2.0,91,0.00,,---,0.00,VWS V14.00,2013-01-17 19:12:00,
2013-01-17 11:17:00,36.9,35.1,30.33,ENE,70,2.0,2.0,93,0.00,,---,0.00,VWS V14.00,2013-01-17 19:17:00,
2013-01-17 11:22:00,36.7,34.3,30.33,East,90,0.0,2.0,91,0.00,,---,0.00,VWS V14.00,2013-01-17 19:22:00,
2013-01-17 11:26:00,36.5,34.4,30.33,East,83,0.0,2.0,92,0.00,,---,0.00,VWS V14.00,2013-01-17 19:26:00,
2013-01-17 11:30:00,36.5,34.4,30.33,East,82,0.0,2.0,92,0.00,,---,0.00,VWS V14.00,2013-01-17 19:30:00,
2013-01-17 11:31:00,36.4,34.3,30.33,ENE,57,0.0,2.0,92,0.00,,---,0.00,VWS V14.00,2013-01-17 19:31:00,
2013-01-17 11:36:00,36.2,34.1,30.33,East,79,0.0,3.0,92,0.00,,---,0.00,VWS V14.00,2013-01-17 19:36:00,
2013-01-17 11:41:00,35.9,33.8,30.33,NE,43,0.0,3.0,92,0.00,,---,0.00,VWS V14.00,2013-01-17 19:41:00,
2013-01-17 11:46:00,36.3,34.7,30.32,East,80,0.0,3.0,94,0.00,,---,0.00,VWS V14.00,2013-01-17 19:46:00,
2013-01-17 11:51:00,36.8,35.0,30.32,East,79,0.0,3.0,93,0.00,,---,0.00,VWS V14.00,2013-01-17 19:51:00,
2013-01-17 11:56:00,36.8,35.0,30.32,ESE,108,0.0,3.0,93,0.00,,---,0.00,VWS V14.00,2013-01-17 19:56:00,
2013-01-17 12:00:00,36.8,35.0,30.31,ENE,77,0.0,3.0,93,0.00,,---,0.00,VWS V14.00,2013-01-17 20:00:00,
2013-01-17 12:01:00,36.8,34.7,30.31,NE,51,1.0,2.0,92,0.00,,---,0.00,VWS V14.00,2013-01-17 20:01:00,
2013-01-17 12:06:00,37.0,35.2,30.31,SE,136,0.0,2.0,93,0.00,,---,0.00,VWS V14.00,2013-01-17 20:06:00,
2013-01-17 12:11:00,37.3,35.2,30.31,East,84,0.0,2.0,92,0.00,,---,0.00,VWS V14.00,2013-01-17 20:11:00,
2013-01-17 12:16:00,37.4,35.3,30.31,ENE,74,0.0,2.0,92,0.00,,---,0.00,VWS V14.00,2013-01-17 20:16:00,
2013-01-17 12:21:00,37.3,34.9,30.31,East,96,0.0,2.0,91,0.00,,---,0.00,VWS V14.00,2013-01-17 20:21:00,
2013-01-17 12:26:00,37.4,35.0,30.31,East,91,0.0,2.0,91,0.00,,---,0.00,VWS V14.00,2013-01-17 20:26:00,
2013-01-17 12:30:00,37.3,34.9,30.30,East,79,1.0,2.0,91,0.00,,---,0.00,VWS V14.00,2013-01-17 20:30:00,
2013-01-17 12:31:00,37.2,34.8,30.30,ENE,63,1.0,1.0,91,0.00,,---,0.00,VWS V14.00,2013-01-17 20:31:00,
2013-01-17 12:36:00,37.2,34.8,30.31,ENE,78,1.0,2.0,91,0.00,,---,0.00,VWS V14.00,2013-01-17 20:36:00,
2013-01-17 12:41:00,37.3,35.2,30.30,NE,56,1.0,2.0,92,0.00,,---,0.00,VWS V14.00,2013-01-17 20:41:00,
2013-01-17 12:46:00,37.9,36.1,30.30,NE,46,1.0,2.0,93,0.00,,---,0.00,VWS V14.00,2013-01-17 20:46:00,
2013-01-17 12:51:00,38.2,35.8,30.30,East,95,2.0,3.0,91,0.00,,---,0.00,VWS V14.00,2013-01-17 20:51:00,
2013-01-17 12:56:00,38.1,35.7,30.29,East,91,0.0,3.0,91,0.00,,---,0.00,VWS V14.00,2013-01-17 20:56:00,
2013-01-17 13:00:00,38.3,35.9,30.29,ESE,107,0.0,3.0,91,0.00,,---,0.00,VWS V14.00,2013-01-17 21:00:00,
2013-01-17 13:01:00,38.4,36.0,30.29,East,87,1.0,1.0,91,0.00,,---,0.00,VWS V14.00,2013-01-17 21:01:00,
2013-01-17 13:06:00,38.7,36.3,30.29,East,96,0.0,1.0,91,0.00,,---,0.00,VWS V14.00,2013-01-17 21:06:00,
2013-01-17 13:11:00,38.4,35.5,30.29,ENE,72,0.0,2.0,89,0.00,,---,0.00,VWS V14.00,2013-01-17 21:11:00,
2013-01-17 13:16:00,38.6,35.9,30.28,ENE,77,0.0,2.0,90,0.00,,---,0.00,VWS V14.00,2013-01-17 21:16:00,
2013-01-17 13:21:00,38.7,36.0,30.28,ENE,78,0.0,2.0,90,0.00,,---,0.00,VWS V14.00,2013-01-17 21:21:00,
2013-01-17 13:26:00,38.5,35.5,30.28,East,89,1.0,2.0,89,0.00,,---,0.00,VWS V14.00,2013-01-17 21:26:00,
2013-01-17 13:30:00,38.4,35.5,30.28,East,84,0.0,2.0,89,0.00,,---,0.00,VWS V14.00,2013-01-17 21:30:00,
2013-01-17 13:31:00,38.3,35.3,30.28,East,82,1.0,1.0,89,0.00,,---,0.00,VWS V14.00,2013-01-17 21:31:00,
2013-01-17 13:36:00,38.3,35.3,30.27,NE,54,1.0,1.0,89,0.00,,---,0.00,VWS V14.00,2013-01-17 21:36:00,
2013-01-17 13:41:00,38.0,35.0,30.27,ESE,109,0.0,2.0,89,0.00,,---,0.00,VWS V14.00,2013-01-17 21:41:00,
2013-01-17 13:46:00,38.2,35.5,30.27,ENE,60,0.0,2.0,90,0.00,,---,0.00,VWS V14.00,2013-01-17 21:46:00,
2013-01-17 13:51:00,38.4,35.5,30.27,ENE,68,0.0,2.0,89,0.00,,---,0.00,VWS V14.00,2013-01-17 21:51:00,
2013-01-17 13:56:00,38.7,36.0,30.26,SE,141,1.0,2.0,90,0.00,,---,0.00,VWS V14.00,2013-01-17 21:56:00,
2013-01-17 14:00:00,39.1,36.4,30.26,SE,134,0.0,2.0,90,0.00,,---,0.00,VWS V14.00,2013-01-17 22:00:00,
2013-01-17 14:01:00,39.2,36.2,30.26,SE,131,0.0,0.0,89,0.00,,---,0.00,VWS V14.00,2013-01-17 22:01:00,
2013-01-17 14:06:00,39.7,36.7,30.25,ESE,121,1.0,1.0,89,0.00,,---,0.00,VWS V14.00,2013-01-17 22:06:00,
2013-01-17 14:11:00,40.0,36.7,30.25,SE,127,1.0,1.0,88,0.00,,---,0.00,VWS V14.00,2013-01-17 22:11:00,
2013-01-17 14:16:00,40.1,36.3,30.25,SE,134,0.0,1.0,86,0.00,,---,0.00,VWS V14.00,2013-01-17 22:16:00,
2013-01-17 14:21:00,39.5,35.7,30.25,SE,134,0.0,1.0,86,0.00,,---,0.00,VWS V14.00,2013-01-17 22:21:00,
2013-01-17 14:26:00,38.9,35.1,30.25,SE,134,0.0,1.0,86,0.00,,---,0.00,VWS V14.00,2013-01-17 22:26:00,
2013-01-17 14:30:00,38.6,35.4,30.25,SE,134,0.0,1.0,88,0.00,,---,0.00,VWS V14.00,2013-01-17 22:30:00,
2013-01-17 14:31:00,38.8,35.8,30.24,SE,128,1.0,1.0,89,0.00,,---,0.00,VWS V14.00,2013-01-17 22:31:00,
2013-01-17 14:36:00,39.6,36.6,30.24,SE,137,0.0,1.0,89,0.00,,---,0.00,VWS V14.00,2013-01-17 22:36:00,
2013-01-17 14:41:00,40.4,36.8,30.24,SE,136,0.0,1.0,87,0.00,,---,0.00,VWS V14.00,2013-01-17 22:41:00,
2013-01-17 14:46:00,40.9,37.0,30.24,SE,137,0.0,1.0,86,0.00,,---,0.00,VWS V14.00,2013-01-17 22:46:00,
2013-01-17 14:51:00,41.0,36.5,30.24,SE,136,0.0,1.0,84,0.00,,---,0.00,VWS V14.00,2013-01-17 22:51:00,
2013-01-17 14:56:00,40.5,36.0,30.24,SE,137,0.0,1.0,84,0.00,,---,0.00,VWS V14.00,2013-01-17 22:56:00,
2013-01-17 15:00:00,40.0,35.9,30.24,SE,137,0.0,1.0,85,0.00,,---,0.00,VWS V14.00,2013-01-17 23:00:00,
2013-01-17 15:01:00,39.9,36.1,30.24,SE,131,0.0,0.0,86,0.00,,---,0.00,VWS V14.00,2013-01-17 23:01:00,
2013-01-17 15:06:00,39.7,36.4,30.24,SE,124,0.0,0.0,88,0.00,,---,0.00,VWS V14.00,2013-01-17 23:06:00,
2013-01-17 15:11:00,39.6,36.1,30.24,SE,124,0.0,0.0,87,0.00,,---,0.00,VWS V14.00,2013-01-17 23:11:00,
2013-01-17 15:16:00,39.5,36.2,30.24,SE,124,0.0,0.0,88,0.00,,---,0.00,VWS V14.00,2013-01-17 23:16:00,
2013-01-17 15:21:00,39.1,35.8,30.24,SE,124,0.0,0.0,88,0.00,,---,0.00,VWS V14.00,2013-01-17 23:21:00,
2013-01-17 15:26:00,38.6,35.6,30.23,SE,124,0.0,0.0,89,0.00,,---,0.00,VWS V14.00,2013-01-17 23:26:00,
2013-01-17 15:30:00,38.3,35.3,30.23,SE,124,0.0,0.0,89,0.00,,---,0.00,VWS V14.00,2013-01-17 23:30:00,
2013-01-17 15:31:00,38.2,35.2,30.23,SE,124,0.0,0.0,89,0.00,,---,0.00,VWS V14.00,2013-01-17 23:31:00,
2013-01-17 15:36:00,37.9,35.2,30.23,SE,124,0.0,0.0,90,0.00,,---,0.00,VWS V14.00,2013-01-17 23:36:00,
2013-01-17 15:41:00,37.6,35.2,30.23,WSW,240,0.0,0.0,91,0.00,,---,0.00,VWS V14.00,2013-01-17 23:41:00,
2013-01-17 15:46:00,37.3,35.2,30.23,WSW,242,0.0,0.0,92,0.00,,---,0.00,VWS V14.00,2013-01-17 23:46:00,
2013-01-17 15:51:00,37.1,35.0,30.23,WSW,240,0.0,0.0,92,0.00,,---,0.00,VWS V14.00,2013-01-17 23:51:00,
2013-01-17 15:56:00,37.1,35.3,30.23,WSW,240,0.0,0.0,93,0.00,,---,0.00,VWS V14.00,2013-01-17 23:56:00,
2013-01-17 16:00:00,37.1,35.3,30.23,WSW,240,0.0,0.0,93,0.00,,---,0.00,VWS V14.00,2013-01-18 00:00:00,
2013-01-17 16:01:00,37.0,35.2,30.23,WSW,240,0.0,0.0,93,0.00,,---,0.00,VWS V14.00,2013-01-18 00:01:00,
2013-01-17 16:06:00,36.8,35.0,30.23,WSW,240,0.0,0.0,93,0.00,,---,0.00,VWS V14.00,2013-01-18 00:06:00,
2013-01-17 16:11:00,36.6,34.8,30.23,SE,127,0.0,0.0,93,0.00,,---,0.00,VWS V14.00,2013-01-18 00:11:00,
2013-01-17 16:16:00,36.4,34.6,30.23,SE,127,0.0,0.0,93,0.00,,---,0.00,VWS V14.00,2013-01-18 00:16:00,
2013-01-17 16:21:00,36.0,34.2,30.23,SE,127,0.0,0.0,93,0.00,,---,0.00,VWS V14.00,2013-01-18 00:21:00,
2013-01-17 16:26:00,35.9,34.1,30.22,West,274,0.0,0.0,93,0.00,,---,0.00,VWS V14.00,2013-01-18 00:26:00,
2013-01-17 16:30:00,35.7,34.2,30.23,West,274,0.0,0.0,94,0.00,,---,0.00,VWS V14.00,2013-01-18 00:30:00,
2013-01-17 16:31:00,35.6,34.0,30.22,West,274,0.0,0.0,94,0.00,,---,0.00,VWS V14.00,2013-01-18 00:31:00,
2013-01-17 16:36:00,35.4,33.8,30.23,West,274,0.0,0.0,94,0.00,,---,0.00,VWS V14.00,2013-01-18 00:36:00,
2013-01-17 16:41:00,35.3,33.8,30.23,West,270,0.0,0.0,94,0.00,,---,0.00,VWS V14.00,2013-01-18 00:41:00,
2013-01-17 16:46:00,35.3,34.0,30.23,West,266,0.0,0.0,95,0.00,,---,0.00,VWS V14.00,2013-01-18 00:46:00,
2013-01-17 16:51:00,35.0,33.5,30.23,West,267,0.0,0.0,94,0.00,,---,0.00,VWS V14.00,2013-01-18 00:51:00,
2013-01-17 16:56:00,34.9,33.6,30.23,West,269,0.0,0.0,95,0.00,,---,0.00,VWS V14.00,2013-01-18 00:56:00,
2013-01-17 17:00:00,35.1,33.8,30.23,West,267,0.0,0.0,95,0.00,,---,0.00,VWS V14.00,2013-01-18 01:00:00,
2013-01-17 17:01:00,35.2,33.9,30.23,West,267,0.0,0.0,95,0.00,,---,0.00,VWS V14.00,2013-01-18 01:01:00,
2013-01-17 17:06:00,34.9,33.6,30.23,West,269,0.0,0.0,95,0.00,,---,0.00,VWS V14.00,2013-01-18 01:06:00,
2013-01-17 17:11:00,34.8,33.5,30.23,West,278,0.0,0.0,95,0.00,,---,0.00,VWS V14.00,2013-01-18 01:11:00,
2013-01-17 17:16:00,34.8,33.5,30.23,West,277,0.0,0.0,95,0.00,,---,0.00,VWS V14.00,2013-01-18 01:16:00,
2013-01-17 17:21:00,35.0,33.7,30.22,West,277,0.0,0.0,95,0.00,,---,0.00,VWS V14.00,2013-01-18 01:21:00,
2013-01-17 17:26:00,35.0,33.7,30.22,West,277,0.0,0.0,95,0.00,,---,0.00,VWS V14.00,2013-01-18 01:26:00,
2013-01-17 17:30:00,34.8,33.5,30.22,West,276,0.0,0.0,95,0.00,,---,0.00,VWS V14.00,2013-01-18 01:30:00,
2013-01-17 17:31:00,34.8,33.5,30.22,West,276,0.0,0.0,95,0.00,,---,0.00,VWS V14.00,2013-01-18 01:31:00,
2013-01-17 17:36:00,34.8,33.5,30.22,West,277,0.0,0.0,95,0.00,,---,0.00,VWS V14.00,2013-01-18 01:36:00,
2013-01-17 17:41:00,34.8,33.5,30.22,ESE,111,0.0,0.0,95,0.00,,---,0.00,VWS V14.00,2013-01-18 01:41:00,
2013-01-17 17:46:00,34.8,33.5,30.22,ESE,112,0.0,0.0,95,0.00,,---,0.00,VWS V14.00,2013-01-18 01:46:00,
2013-01-17 17:51:00,34.7,33.4,30.22,ESE,112,0.0,0.0,95,0.00,,---,0.00,VWS V14.00,2013-01-18 01:51:00,
2013-01-17 17:56:00,34.7,33.4,30.22,ESE,110,0.0,0.0,95,0.00,,---,0.00,VWS V14.00,2013-01-18 01:56:00,
2013-01-17 18:00:00,34.5,33.2,30.22,ESE,110,0.0,0.0,95,0.00,,---,0.00,VWS V14.00,2013-01-18 02:00:00,
2013-01-17 18:01:00,34.5,33.2,30.22,ESE,112,0.0,0.0,95,0.00,,---,0.00,VWS V14.00,2013-01-18 02:01:00,
2013-01-17 18:06:00,34.4,33.1,30.22,ESE,111,0.0,0.0,95,0.00,,---,0.00,VWS V14.00,2013-01-18 02:06:00,
2013-01-17 18:11:00,34.3,33.0,30.21,ESE,112,0.0,0.0,95,0.00,,---,0.00,VWS V14.00,2013-01-18 02:11:00,
2013-01-17 18:16:00,34.1,33.1,30.22,ESE,112,0.0,0.0,96,0.00,,---,0.00,VWS V14.00,2013-01-18 02:16:00,
2013-01-17 18:21:00,34.3,33.3,30.22,ESE,112,0.0,0.0,96,0.00,,---,0.00,VWS V14.00,2013-01-18 02:21:00,
2013-01-17 18:26:00,34.3,33.3,30.22,WNW,287,0.0,0.0,96,0.00,,---,0.00,VWS V14.00,2013-01-18 02:26:00,
2013-01-17 18:30:00,34.2,33.2,30.22,West,281,0.0,0.0,96,0.00,,---,0.00,VWS V14.00,2013-01-18 02:30:00,
2013-01-17 18:31:00,34.2,33.2,30.22,WNW,283,0.0,0.0,96,0.00,,---,0.00,VWS V14.00,2013-01-18 02:31:00,
2013-01-17 18:36:00,34.1,33.1,30.22,West,278,1.0,3.0,96,0.00,,---,0.00,VWS V14.00,2013-01-18 02:36:00,
2013-01-17 18:41:00,34.1,33.1,30.22,West,276,0.0,3.0,96,0.00,,---,0.00,VWS V14.00,2013-01-18 02:41:00,
2013-01-17 18:46:00,34.0,33.0,30.22,West,280,1.0,3.0,96,0.00,,---,0.00,VWS V14.00,2013-01-18 02:46:00,
2013-01-17 18:51:00,33.8,32.8,30.22,West,280,0.0,3.0,96,0.00,,---,0.00,VWS V14.00,2013-01-18 02:51:00,
2013-01-17 18:56:00,33.6,32.6,30.22,WNW,300,0.0,3.0,96,0.00,,---,0.00,VWS V14.00,2013-01-18 02:56:00,
2013-01-17 19:00:00,33.3,32.3,30.22,WNW,302,1.0,2.0,96,0.00,,---,0.00,VWS V14.00,2013-01-18 03:00:00,
2013-01-17 19:05:00,33.3,32.3,30.22,WNW,302,1.0,2.0,96,0.00,,---,0.00,VWS V14.00,2013-01-18 03:05:00,
2013-01-17 19:10:00,33.3,32.3,30.22,West,281,2.0,2.0,96,0.00,,---,0.00,VWS V14.00,2013-01-18 03:10:00,
2013-01-17 19:15:00,33.2,32.2,30.22,West,273,1.0,2.0,96,0.00,,---,0.00,VWS V14.00,2013-01-18 03:15:00,
2013-01-17 19:20:00,33.1,32.3,30.22,West,267,0.0,2.0,97,0.00,,---,0.00,VWS V14.00,2013-01-18 03:20:00,
2013-01-17 19:25:00,33.1,32.3,30.22,SSE,152,0.0,2.0,97,0.00,,---,0.00,VWS V14.00,2013-01-18 03:25:00,
2013-01-17 19:30:00,33.4,32.6,30.22,SSE,158,0.0,0.0,97,0.00,,---,0.00,VWS V14.00,2013-01-18 03:30:00,
2013-01-17 19:35:00,33.6,32.8,30.22,SSE,158,0.0,0.0,97,0.00,,---,0.00,VWS V14.00,2013-01-18 03:35:00,
2013-01-17 19:40:00,33.3,32.5,30.22,SW,222,0.0,0.0,97,0.00,,---,0.00,VWS V14.00,2013-01-18 03:40:00,
2013-01-17 19:45:00,33.6,32.8,30.21,SW,222,0.0,0.0,97,0.00,,---,0.00,VWS V14.00,2013-01-18 03:45:00,
2013-01-17 19:50:00,33.8,33.0,30.21,SW,221,0.0,0.0,97,0.00,,---,0.00,VWS V14.00,2013-01-18 03:50:00,
2013-01-17 19:55:00,33.5,32.7,30.21,SW,221,0.0,0.0,97,0.00,,---,0.00,VWS V14.00,2013-01-18 03:55:00,
2013-01-17 20:00:00,33.4,32.6,30.22,SW,221,0.0,0.0,97,0.00,,---,0.00,VWS V14.00,2013-01-18 04:00:00,
2013-01-17 20:05:00,33.4,32.6,30.22,SW,222,0.0,0.0,97,0.00,,---,0.00,VWS V14.00,2013-01-18 04:05:00,
2013-01-17 20:10:00,33.3,32.5,30.22,SW,222,0.0,0.0,97,0.00,,---,0.00,VWS V14.00,2013-01-18 04:10:00,
2013-01-17 20:15:00,33.5,32.7,30.22,West,264,0.0,0.0,97,0.00,,---,0.00,VWS V14.00,2013-01-18 04:15:00,
2013-01-17 20:20:00,33.7,32.9,30.22,West,272,0.0,0.0,97,0.00,,---,0.00,VWS V14.00,2013-01-18 04:20:00,
2013-01-17 20:25:00,33.9,33.1,30.22,West,273,0.0,0.0,97,0.00,,---,0.00,VWS V14.00,2013-01-18 04:25:00,
2013-01-17 20:30:00,33.9,33.1,30.21,West,273,0.0,0.0,97,0.00,,---,0.00,VWS V14.00,2013-01-18 04:30:00,
2013-01-17 20:35:00,33.9,33.1,30.21,West,272,0.0,0.0,97,0.00,,---,0.00,VWS V14.00,2013-01-18 04:35:00,
2013-01-17 20:40:00,33.8,33.0,30.21,West,272,0.0,0.0,97,0.00,,---,0.00,VWS V14.00,2013-01-18 04:40:00,
2013-01-17 20:45:00,33.6,32.8,30.21,West,273,0.0,0.0,97,0.00,,---,0.00,VWS V14.00,2013-01-18 04:45:00,
2013-01-17 20:50:00,33.4,32.6,30.21,West,281,0.0,0.0,97,0.00,,---,0.00,VWS V14.00,2013-01-18 04:50:00,
2013-01-17 20:55:00,33.1,32.3,30.21,West,281,0.0,0.0,97,0.00,,---,0.00,VWS V14.00,2013-01-18 04:55:00,
2013-01-17 21:00:00,32.9,32.1,30.21,WNW,283,0.0,0.0,97,0.00,,---,0.00,VWS V14.00,2013-01-18 05:00:00,
2013-01-17 21:01:00,32.9,32.1,30.21,West,276,0.0,0.0,97,0.00,,---,0.00,VWS V14.00,2013-01-18 05:01:00,
2013-01-17 21:06:00,32.7,31.9,30.21,West,281,2.0,2.0,97,0.00,,---,0.00,VWS V14.00,2013-01-18 05:06:00,
2013-01-17 21:11:00,32.8,32.0,30.21,West,281,0.0,2.0,97,0.00,,---,0.00,VWS V14.00,2013-01-18 05:11:00,
2013-01-17 21:16:00,32.8,32.0,30.21,West,281,2.0,3.0,97,0.00,,---,0.00,VWS V14.00,2013-01-18 05:16:00,
2013-01-17 21:21:00,32.9,32.1,30.21,West,280,0.0,3.0,97,0.00,,---,0.00,VWS V14.00,2013-01-18 05:21:00,
2013-01-17 21:26:00,33.0,32.2,30.21,West,272,1.0,3.0,97,0.00,,---,0.00,VWS V14.00,2013-01-18 05:26:00,
2013-01-17 21:30:00,33.0,32.2,30.21,West,273,0.0,3.0,97,0.00,,---,0.00,VWS V14.00,2013-01-18 05:30:00,
2013-01-17 21:31:00,33.1,32.3,30.21,West,274,3.0,3.0,97,0.00,,---,0.00,VWS V14.00,2013-01-18 05:31:00,
2013-01-17 21:36:00,33.0,32.2,30.21,WNW,288,2.0,3.0,97,0.00,,---,0.00,VWS V14.00,2013-01-18 05:36:00,
2013-01-17 21:41:00,33.1,32.3,30.21,WSW,257,0.0,4.0,97,0.00,,---,0.00,VWS V14.00,2013-01-18 05:41:00,
2013-01-17 21:46:00,33.6,33.1,30.21,WSW,256,0.0,4.0,98,0.00,,---,0.00,VWS V14.00,2013-01-18 05:46:00,
2013-01-17 21:51:00,33.8,33.3,30.21,West,259,0.0,4.0,98,0.00,,---,0.00,VWS V14.00,2013-01-18 05:51:00,
2013-01-17 21:56:00,33.9,33.4,30.20,West,260,0.0,4.0,98,0.00,,---,0.00,VWS V14.00,2013-01-18 05:56:00,
2013-01-17 22:00:00,33.6,32.8,30.21,West,271,0.0,4.0,97,0.00,,---,0.00,VWS V14.00,2013-01-18 06:00:00,
2013-01-17 22:01:00,33.5,32.7,30.21,West,271,0.0,0.0,97,0.00,,---,0.00,VWS V14.00,2013-01-18 06:01:00,
2013-01-17 22:06:00,33.5,32.7,30.21,West,278,0.0,0.0,97,0.00,,---,0.00,VWS V14.00,2013-01-18 06:06:00,
2013-01-17 22:11:00,33.3,32.5,30.20,West,278,0.0,0.0,97,0.00,,---,0.00,VWS V14.00,2013-01-18 06:11:00,
2013-01-17 22:16:00,33.3,32.5,30.20,West,276,1.0,3.0,97,0.00,,---,0.00,VWS V14.00,2013-01-18 06:16:00,
2013-01-17 22:21:00,33.3,32.5,30.20,West,280,0.0,3.0,97,0.00,,---,0.00,VWS V14.00,2013-01-18 06:21:00,
2013-01-17 22:26:00,33.4,32.6,30.20,West,280,0.0,3.0,97,0.00,,---,0.00,VWS V14.00,2013-01-18 06:26:00,
2013-01-17 22:30:00,33.4,32.6,30.20,WNW,301,0.0,3.0,97,0.00,,---,0.00,VWS V14.00,2013-01-18 06:30:00,
2013-01-17 22:31:00,33.3,32.5,30.20,WNW,300,1.0,2.0,97,0.00,,---,0.00,VWS V14.00,2013-01-18 06:31:00,
2013-01-17 22:36:00,33.3,32.5,30.20,WNW,295,0.0,2.0,97,0.00,,---,0.00,VWS V14.00,2013-01-18 06:36:00,
2013-01-17 22:41:00,33.4,32.6,30.19,East,86,0.0,2.0,97,0.00,,---,0.00,VWS V14.00,2013-01-18 06:41:00,
2013-01-17 22:46:00,33.4,32.6,30.19,East,80,0.0,2.0,97,0.00,,---,0.00,VWS V14.00,2013-01-18 06:46:00,
2013-01-17 22:51:00,33.4,32.6,30.19,East,81,0.0,2.0,97,0.00,,---,0.00,VWS V14.00,2013-01-18 06:51:00,
2013-01-17 22:56:00,33.5,33.0,30.19,SSE,154,0.0,2.0,98,0.00,,---,0.00,VWS V14.00,2013-01-18 06:56:00,
2013-01-17 23:00:00,33.5,33.0,30.19,SE,136,0.0,2.0,98,0.00,,---,0.00,VWS V14.00,2013-01-18 07:00:00,
2013-01-17 23:01:00,33.6,33.1,30.19,ENE,67,0.0,1.0,98,0.00,,---,0.00,VWS V14.00,2013-01-18 07:01:00,
2013-01-17 23:06:00,33.5,32.7,30.19,WNW,295,0.0,1.0,97,0.00,,---,0.00,VWS V14.00,2013-01-18 07:06:00,
2013-01-17 23:11:00,33.3,32.5,30.19,WNW,295,0.0,1.0,97,0.00,,---,0.00,VWS V14.00,2013-01-18 07:11:00,
2013-01-17 23:16:00,33.3,32.5,30.19,WNW,290,0.0,1.0,97,0.00,,---,0.00,VWS V14.00,2013-01-18 07:16:00,
2013-01-17 23:21:00,33.3,32.5,30.19,NW,316,0.0,1.0,97,0.00,,---,0.00,VWS V14.00,2013-01-18 07:21:00,
2013-01-17 23:26:00,33.3,32.5,30.19,NW,304,1.0,2.0,97,0.00,,---,0.00,VWS V14.00,2013-01-18 07:26:00,
2013-01-17 23:30:00,33.3,32.5,30.19,WNW,299,2.0,2.0,97,0.00,,---,0.00,VWS V14.00,2013-01-18 07:30:00,
2013-01-17 23:31:00,33.3,32.5,30.19,WNW,288,1.0,2.0,97,0.00,,---,0.00,VWS V14.00,2013-01-18 07:31:00,
2013-01-17 23:36:00,33.2,32.4,30.19,West,264,1.0,2.0,97,0.00,,---,0.00,VWS V14.00,2013-01-18 07:36:00,
2013-01-17 23:41:00,33.0,32.2,30.19,WNW,293,2.0,2.0,97,0.00,,---,0.00,VWS V14.00,2013-01-18 07:41:00,
2013-01-17 23:46:00,32.8,32.0,30.19,West,274,1.0,2.0,97,0.00,,---,0.00,VWS V14.00,2013-01-18 07:46:00,
2013-01-17 23:51:00,32.7,31.9,30.19,West,269,1.0,2.0,97,0.00,,---,0.00,VWS V14.00,2013-01-18 07:51:00,
2013-01-17 23:56:00,32.5,31.7,30.19,West,277,1.0,2.0,97,0.00,,---,0.00,VWS V14.00,2013-01-18 07:56:00,